Terminal Aerodrome Forecast
Issued by NWS

Home | Current Version | Previous Version | Text Only | Print | Product List | Glossary On
Versions: 1 2 3 4 5 6 7 8 9 10 11 12 13 14 15 16 17 18 19 20 21 22 23 24 25 26 27
000
FTUS41 KOKX 061120
TAFHPN
TAF
KHPN 061120Z 0612/0712 03008KT 3SM RA BR OVC008
     FM061300 05011G17KT 2SM RA BR OVC006
     FM061800 08014G20KT 3/4SM -SHRADZ BR OVC004
     FM070000 10008KT 1/2SM -DZ FG OVC002
      AMD NOT SKED=

USA.gov is the U.S. government's official web portal to all federal, state and local government web resources and services.